Leopold, Missouri
Current Conditions -  °F | °C
As of 7:33 PM on Monday 22 Dec 2014 (Local Time) from KCGI Reporting Station
Light Rain Light Rain  
Wind Chill: 52°   Ceiling: 1300
Heat Index: 52°   Visibility: 6mi
Dew Point: 51°   Wind: 12mph
Humidity: 97%   Direction: 150°SSE
Pressure: 29.58"   Gusts: NA
Location:  37.26°N, 89.93°W
Report Text: KCGI 230133Z 15010KT 6SM -RA BR SCT008 BKN013 OVC033 11/11 A2958 RMK AO2 P0007 T01110106
Loading
Personal Weather Stations






























Interactive Weather Map New forecast layout! Learn more

10-Day Weather Forecast

Advertisements
Track Severe Weather on mobile